Archival Weather

Chicago O'Hare International

Chicago, Illinois (KORD)

Report from: Saturday, August 6, 2022 12:51 AM CDT
Current time: Tuesday, August 16, 2022 2:27 AM CDT

Current weather
Weather history
Weather forecast

Present weatherMist
Temperature25.6°C (78.1°F)
Dew point22.8°C (73.0°F)
Winds 3 kts (1.5 m/s, 3.5 mph) South-Southwest (200°)
Visibility6 mi. (9.7 km)
Clouds Sky clear
Altimeter30.07 in.Hg (1018 mB)
Relative humidity85 %
Density altitude1,429 ft. (436 m)
Sea-level pressure101.8 kPa (1018 mB, 30.05 in.Hg)
Max temp last 6 hours29.4°C (84.9°F)
Min temp last 6 hours25.0°C (77.0°F)
Max temp last 24 hours31.1°C (88.0°F)
Min temp last 24 hours19.4°C (66.9°F)
Remarks Automated weather observing station with precipitation discriminator
Pressure rising more quickly
Flight conditions Visual Meteorological Conditions
Raw dataKORD 060551Z 20003KT 6SM BR CLR 26/23 A3007 RMK AO2 SLP175 T02560228 10294 20250 403110194 53003
An error has occurred. This application may no longer respond until reloaded. Reload 🗙